sensor_id;sensor_type;location;lat;lon;timestamp;temperature;humidity
19307;DHT22;9788;48.194;16.318;2023-12-20T00:01:34;-0.40;99.90
19307;DHT22;9788;48.194;16.318;2023-12-20T00:04:03;-0.50;99.90
19307;DHT22;9788;48.194;16.318;2023-12-20T00:06:31;-0.40;99.90
19307;DHT22;9788;48.194;16.318;2023-12-20T00:09:01;-0.50;99.90
19307;DHT22;9788;48.194;16.318;2023-12-20T00:11:32;-0.50;99.90
19307;DHT22;9788;48.194;16.318;2023-12-20T00:14:02;-0.60;99.90
19307;DHT22;9788;48.194;16.318;2023-12-20T00:16:31;-0.60;99.90
19307;DHT22;9788;48.194;16.318;2023-12-20T00:18:59;-0.70;99.90
19307;DHT22;9788;48.194;16.318;2023-12-20T00:21:28;-0.70;99.90
19307;DHT22;9788;48.194;16.318;2023-12-20T00:23:57;-0.70;99.90
19307;DHT22;9788;48.194;16.318;2023-12-20T00:26:26;-0.70;99.90
19307;DHT22;9788;48.194;16.318;2023-12-20T00:28:55;-0.70;99.90
19307;DHT22;9788;48.194;16.318;2023-12-20T00:31:25;-0.60;99.90
19307;DHT22;9788;48.194;16.318;2023-12-20T00:33:53;-0.60;99.90
19307;DHT22;9788;48.194;16.318;2023-12-20T00:36:24;-0.70;99.90
19307;DHT22;9788;48.194;16.318;2023-12-20T00:38:53;-0.80;99.90
19307;DHT22;9788;48.194;16.318;2023-12-20T00:41:25;-0.80;99.90
19307;DHT22;9788;48.194;16.318;2023-12-20T00:43:53;-0.90;99.90
19307;DHT22;9788;48.194;16.318;2023-12-20T00:46:22;-1.00;99.90
19307;DHT22;9788;48.194;16.318;2023-12-20T00:48:52;-0.90;99.90
19307;DHT22;9788;48.194;16.318;2023-12-20T00:51:21;-0.80;99.90
19307;DHT22;9788;48.194;16.318;2023-12-20T00:53:50;-0.80;99.90
19307;DHT22;9788;48.194;16.318;2023-12-20T00:56:22;-0.70;99.90
19307;DHT22;9788;48.194;16.318;2023-12-20T00:58:51;-0.60;99.90
19307;DHT22;9788;48.194;16.318;2023-12-20T01:01:19;-0.50;99.90
19307;DHT22;9788;48.194;16.318;2023-12-20T01:03:47;-0.50;99.90
19307;DHT22;9788;48.194;16.318;2023-12-20T01:06:19;-0.60;99.90
19307;DHT22;9788;48.194;16.318;2023-12-20T01:08:47;-0.60;99.90
19307;DHT22;9788;48.194;16.318;2023-12-20T01:11:16;-0.50;99.90
19307;DHT22;9788;48.194;16.318;2023-12-20T01:13:44;-0.40;99.90
19307;DHT22;9788;48.194;16.318;2023-12-20T01:16:12;-0.50;99.90
19307;DHT22;9788;48.194;16.318;2023-12-20T01:18:40;-0.50;99.90
19307;DHT22;9788;48.194;16.318;2023-12-20T01:21:08;-0.50;99.90
19307;DHT22;9788;48.194;16.318;2023-12-20T01:23:38;-0.50;99.90
19307;DHT22;9788;48.194;16.318;2023-12-20T01:26:07;-0.50;99.90
19307;DHT22;9788;48.194;16.318;2023-12-20T01:28:35;-0.40;99.90
19307;DHT22;9788;48.194;16.318;2023-12-20T01:31:04;-0.40;99.90
19307;DHT22;9788;48.194;16.318;2023-12-20T01:33:33;-0.50;99.90
19307;DHT22;9788;48.194;16.318;2023-12-20T01:36:02;-0.50;99.90
19307;DHT22;9788;48.194;16.318;2023-12-20T01:38:30;-0.50;99.90
19307;DHT22;9788;48.194;16.318;2023-12-20T01:41:00;-0.50;99.90
19307;DHT22;9788;48.194;16.318;2023-12-20T01:43:29;-0.40;99.90
19307;DHT22;9788;48.194;16.318;2023-12-20T01:46:09;-0.30;99.90
19307;DHT22;9788;48.194;16.318;2023-12-20T01:48:39;-0.30;99.90
19307;DHT22;9788;48.194;16.318;2023-12-20T01:51:08;-0.30;99.90
19307;DHT22;9788;48.194;16.318;2023-12-20T01:53:40;-0.40;99.90
19307;DHT22;9788;48.194;16.318;2023-12-20T01:56:11;-0.40;99.90
19307;DHT22;9788;48.194;16.318;2023-12-20T01:58:44;-0.30;99.90
19307;DHT22;9788;48.194;16.318;2023-12-20T02:01:13;-0.30;99.90
19307;DHT22;9788;48.194;16.318;2023-12-20T02:03:43;-0.30;99.90
19307;DHT22;9788;48.194;16.318;2023-12-20T02:06:11;-0.30;99.90
19307;DHT22;9788;48.194;16.318;2023-12-20T02:08:40;-0.40;99.90
19307;DHT22;9788;48.194;16.318;2023-12-20T02:11:08;-0.50;99.90
19307;DHT22;9788;48.194;16.318;2023-12-20T02:13:39;-0.50;99.90
19307;DHT22;9788;48.194;16.318;2023-12-20T02:16:08;-0.60;99.90
19307;DHT22;9788;48.194;16.318;2023-12-20T02:18:36;-0.60;99.90
19307;DHT22;9788;48.194;16.318;2023-12-20T02:21:05;-0.60;99.90
19307;DHT22;9788;48.194;16.318;2023-12-20T02:23:34;-0.70;99.90
19307;DHT22;9788;48.194;16.318;2023-12-20T02:26:03;-0.80;99.90
19307;DHT22;9788;48.194;16.318;2023-12-20T02:28:33;-0.60;99.90
19307;DHT22;9788;48.194;16.318;2023-12-20T02:31:02;-0.60;99.90
19307;DHT22;9788;48.194;16.318;2023-12-20T02:33:31;-0.60;99.90
19307;DHT22;9788;48.194;16.318;2023-12-20T02:35:59;-0.60;99.90
19307;DHT22;9788;48.194;16.318;2023-12-20T02:38:30;-0.70;99.90
19307;DHT22;9788;48.194;16.318;2023-12-20T02:40:59;-0.70;99.90
19307;DHT22;9788;48.194;16.318;2023-12-20T02:43:28;-0.60;99.90
19307;DHT22;9788;48.194;16.318;2023-12-20T02:45:56;-0.60;99.90
19307;DHT22;9788;48.194;16.318;2023-12-20T02:48:24;-0.50;99.90
19307;DHT22;9788;48.194;16.318;2023-12-20T02:50:53;-0.40;99.90
19307;DHT22;9788;48.194;16.318;2023-12-20T02:53:21;-0.20;99.90
19307;DHT22;9788;48.194;16.318;2023-12-20T02:55:49;-0.20;99.90
19307;DHT22;9788;48.194;16.318;2023-12-20T02:58:19;0.10;99.90
19307;DHT22;9788;48.194;16.318;2023-12-20T03:00:47;0.40;99.90
19307;DHT22;9788;48.194;16.318;2023-12-20T03:03:16;1.40;99.90
19307;DHT22;9788;48.194;16.318;2023-12-20T03:05:45;2.30;99.90
19307;DHT22;9788;48.194;16.318;2023-12-20T03:08:14;2.40;99.90
19307;DHT22;9788;48.194;16.318;2023-12-20T03:10:45;2.10;99.90
19307;DHT22;9788;48.194;16.318;2023-12-20T03:13:13;1.70;99.90
19307;DHT22;9788;48.194;16.318;2023-12-20T03:15:43;1.40;99.90
19307;DHT22;9788;48.194;16.318;2023-12-20T03:18:11;1.20;99.90
19307;DHT22;9788;48.194;16.318;2023-12-20T03:20:40;1.00;99.90
19307;DHT22;9788;48.194;16.318;2023-12-20T03:23:08;0.90;99.90
19307;DHT22;9788;48.194;16.318;2023-12-20T03:25:37;0.70;99.90
19307;DHT22;9788;48.194;16.318;2023-12-20T03:28:06;0.50;99.90
19307;DHT22;9788;48.194;16.318;2023-12-20T03:30:34;0.40;99.90
19307;DHT22;9788;48.194;16.318;2023-12-20T03:33:06;0.20;99.90
19307;DHT22;9788;48.194;16.318;2023-12-20T03:35:34;0.20;99.90
19307;DHT22;9788;48.194;16.318;2023-12-20T03:38:03;0.20;99.90
19307;DHT22;9788;48.194;16.318;2023-12-20T03:40:32;0.20;99.90
19307;DHT22;9788;48.194;16.318;2023-12-20T03:43:00;0.30;99.90
19307;DHT22;9788;48.194;16.318;2023-12-20T03:45:28;0.40;99.90
19307;DHT22;9788;48.194;16.318;2023-12-20T03:47:57;0.40;99.90
19307;DHT22;9788;48.194;16.318;2023-12-20T03:50:27;0.50;99.90
19307;DHT22;9788;48.194;16.318;2023-12-20T03:52:55;0.50;99.90
19307;DHT22;9788;48.194;16.318;2023-12-20T03:55:23;0.50;99.90
19307;DHT22;9788;48.194;16.318;2023-12-20T03:57:52;0.60;99.90
19307;DHT22;9788;48.194;16.318;2023-12-20T04:00:20;0.90;99.90
19307;DHT22;9788;48.194;16.318;2023-12-20T04:02:48;0.80;99.90
19307;DHT22;9788;48.194;16.318;2023-12-20T04:05:17;0.90;99.90
19307;DHT22;9788;48.194;16.318;2023-12-20T04:07:47;0.90;99.90
19307;DHT22;9788;48.194;16.318;2023-12-20T04:10:17;0.90;99.90
19307;DHT22;9788;48.194;16.318;2023-12-20T04:12:45;0.80;99.90
19307;DHT22;9788;48.194;16.318;2023-12-20T04:15:14;0.60;99.90
19307;DHT22;9788;48.194;16.318;2023-12-20T04:17:43;0.40;99.90
19307;DHT22;9788;48.194;16.318;2023-12-20T04:20:11;0.20;99.90
19307;DHT22;9788;48.194;16.318;2023-12-20T04:22:41;0.10;99.90
19307;DHT22;9788;48.194;16.318;2023-12-20T04:25:11;-0.10;99.90
19307;DHT22;9788;48.194;16.318;2023-12-20T04:27:40;-0.20;99.90
19307;DHT22;9788;48.194;16.318;2023-12-20T04:30:10;-0.30;99.90
19307;DHT22;9788;48.194;16.318;2023-12-20T04:32:38;-0.30;99.90
19307;DHT22;9788;48.194;16.318;2023-12-20T04:35:07;-0.30;99.90
19307;DHT22;9788;48.194;16.318;2023-12-20T04:37:35;-0.30;99.90
19307;DHT22;9788;48.194;16.318;2023-12-20T04:40:05;-0.30;99.90
19307;DHT22;9788;48.194;16.318;2023-12-20T04:42:36;-0.30;99.90
19307;DHT22;9788;48.194;16.318;2023-12-20T04:45:05;-0.20;99.90
19307;DHT22;9788;48.194;16.318;2023-12-20T04:47:34;-0.20;99.90
19307;DHT22;9788;48.194;16.318;2023-12-20T04:50:02;0.00;99.90
19307;DHT22;9788;48.194;16.318;2023-12-20T04:52:32;0.10;99.90
19307;DHT22;9788;48.194;16.318;2023-12-20T04:55:00;0.20;99.90
19307;DHT22;9788;48.194;16.318;2023-12-20T04:57:28;0.30;99.90
19307;DHT22;9788;48.194;16.318;2023-12-20T04:59:58;0.40;99.90
19307;DHT22;9788;48.194;16.318;2023-12-20T05:02:26;0.50;99.90
19307;DHT22;9788;48.194;16.318;2023-12-20T05:04:54;0.70;99.90
19307;DHT22;9788;48.194;16.318;2023-12-20T05:07:23;1.10;99.90
19307;DHT22;9788;48.194;16.318;2023-12-20T05:09:51;1.70;99.90
19307;DHT22;9788;48.194;16.318;2023-12-20T05:12:21;2.60;99.90
19307;DHT22;9788;48.194;16.318;2023-12-20T05:14:52;3.40;99.90
19307;DHT22;9788;48.194;16.318;2023-12-20T05:17:22;3.80;99.90
19307;DHT22;9788;48.194;16.318;2023-12-20T05:19:50;4.10;99.90
19307;DHT22;9788;48.194;16.318;2023-12-20T05:22:19;4.30;99.90
19307;DHT22;9788;48.194;16.318;2023-12-20T05:24:48;4.80;99.90
19307;DHT22;9788;48.194;16.318;2023-12-20T05:27:16;5.20;99.90
19307;DHT22;9788;48.194;16.318;2023-12-20T05:29:45;5.40;99.90
19307;DHT22;9788;48.194;16.318;2023-12-20T05:32:13;5.60;99.90
19307;DHT22;9788;48.194;16.318;2023-12-20T05:34:44;5.80;99.90
19307;DHT22;9788;48.194;16.318;2023-12-20T05:37:12;5.80;99.90
19307;DHT22;9788;48.194;16.318;2023-12-20T05:39:41;5.90;99.90
19307;DHT22;9788;48.194;16.318;2023-12-20T05:42:11;5.80;99.90
19307;DHT22;9788;48.194;16.318;2023-12-20T05:44:39;5.70;99.90
19307;DHT22;9788;48.194;16.318;2023-12-20T05:47:07;5.70;99.90
19307;DHT22;9788;48.194;16.318;2023-12-20T05:49:35;5.70;99.90
19307;DHT22;9788;48.194;16.318;2023-12-20T05:52:05;5.70;99.90
19307;DHT22;9788;48.194;16.318;2023-12-20T05:54:33;5.80;99.90
19307;DHT22;9788;48.194;16.318;2023-12-20T05:57:02;5.90;99.90
19307;DHT22;9788;48.194;16.318;2023-12-20T05:59:31;6.00;99.90
19307;DHT22;9788;48.194;16.318;2023-12-20T06:01:59;6.00;99.90
19307;DHT22;9788;48.194;16.318;2023-12-20T06:04:29;6.10;99.90
19307;DHT22;9788;48.194;16.318;2023-12-20T06:06:58;6.20;99.90
19307;DHT22;9788;48.194;16.318;2023-12-20T06:09:31;6.40;99.90
19307;DHT22;9788;48.194;16.318;2023-12-20T06:11:59;6.50;99.90
19307;DHT22;9788;48.194;16.318;2023-12-20T06:14:28;6.60;99.90
19307;DHT22;9788;48.194;16.318;2023-12-20T06:16:58;6.80;99.90
19307;DHT22;9788;48.194;16.318;2023-12-20T06:19:26;6.90;99.90
19307;DHT22;9788;48.194;16.318;2023-12-20T06:21:57;6.90;99.90
19307;DHT22;9788;48.194;16.318;2023-12-20T06:24:26;7.00;99.90
19307;DHT22;9788;48.194;16.318;2023-12-20T06:26:57;7.00;99.90
19307;DHT22;9788;48.194;16.318;2023-12-20T06:29:25;7.20;99.90
19307;DHT22;9788;48.194;16.318;2023-12-20T06:31:53;7.20;99.90
19307;DHT22;9788;48.194;16.318;2023-12-20T06:34:22;7.20;99.90
19307;DHT22;9788;48.194;16.318;2023-12-20T06:36:50;7.10;99.90
19307;DHT22;9788;48.194;16.318;2023-12-20T06:39:18;7.20;99.90
19307;DHT22;9788;48.194;16.318;2023-12-20T06:41:47;7.30;99.90
19307;DHT22;9788;48.194;16.318;2023-12-20T06:44:19;7.30;99.90
19307;DHT22;9788;48.194;16.318;2023-12-20T06:46:48;7.40;99.90
19307;DHT22;9788;48.194;16.318;2023-12-20T06:49:16;7.40;99.90
19307;DHT22;9788;48.194;16.318;2023-12-20T06:51:46;7.30;99.90
19307;DHT22;9788;48.194;16.318;2023-12-20T06:54:14;7.30;99.90
19307;DHT22;9788;48.194;16.318;2023-12-20T06:56:42;7.20;99.90
19307;DHT22;9788;48.194;16.318;2023-12-20T06:59:11;7.30;99.90
19307;DHT22;9788;48.194;16.318;2023-12-20T07:01:40;7.50;99.90
19307;DHT22;9788;48.194;16.318;2023-12-20T07:04:09;7.60;99.90
19307;DHT22;9788;48.194;16.318;2023-12-20T07:06:38;7.70;99.90
19307;DHT22;9788;48.194;16.318;2023-12-20T07:09:06;7.80;99.90
19307;DHT22;9788;48.194;16.318;2023-12-20T07:11:34;8.00;99.90
19307;DHT22;9788;48.194;16.318;2023-12-20T07:14:02;8.00;99.90
19307;DHT22;9788;48.194;16.318;2023-12-20T07:16:30;8.10;99.90
19307;DHT22;9788;48.194;16.318;2023-12-20T07:19:09;8.20;99.90
19307;DHT22;9788;48.194;16.318;2023-12-20T07:21:38;8.10;99.90
19307;DHT22;9788;48.194;16.318;2023-12-20T07:24:06;8.10;99.90
19307;DHT22;9788;48.194;16.318;2023-12-20T07:26:35;8.10;99.90
19307;DHT22;9788;48.194;16.318;2023-12-20T07:29:05;8.10;99.90
19307;DHT22;9788;48.194;16.318;2023-12-20T07:31:33;7.90;99.90
19307;DHT22;9788;48.194;16.318;2023-12-20T07:34:02;7.70;99.90
19307;DHT22;9788;48.194;16.318;2023-12-20T07:36:32;7.50;99.90
19307;DHT22;9788;48.194;16.318;2023-12-20T07:39:00;7.30;99.90
19307;DHT22;9788;48.194;16.318;2023-12-20T07:41:29;7.30;99.90
19307;DHT22;9788;48.194;16.318;2023-12-20T07:43:58;7.20;99.90
19307;DHT22;9788;48.194;16.318;2023-12-20T07:46:27;7.20;99.90
19307;DHT22;9788;48.194;16.318;2023-12-20T07:48:55;7.20;99.90
19307;DHT22;9788;48.194;16.318;2023-12-20T07:51:24;7.20;99.90
19307;DHT22;9788;48.194;16.318;2023-12-20T07:53:53;7.20;99.90
19307;DHT22;9788;48.194;16.318;2023-12-20T07:56:22;7.20;99.90
19307;DHT22;9788;48.194;16.318;2023-12-20T07:58:50;7.10;99.90
19307;DHT22;9788;48.194;16.318;2023-12-20T08:01:24;7.10;99.90
19307;DHT22;9788;48.194;16.318;2023-12-20T08:03:52;7.10;99.90
19307;DHT22;9788;48.194;16.318;2023-12-20T08:06:21;7.10;99.90
19307;DHT22;9788;48.194;16.318;2023-12-20T08:08:50;7.10;99.90
19307;DHT22;9788;48.194;16.318;2023-12-20T08:11:31;7.10;99.90
19307;DHT22;9788;48.194;16.318;2023-12-20T08:14:00;7.10;99.90
19307;DHT22;9788;48.194;16.318;2023-12-20T08:16:28;7.10;99.90
19307;DHT22;9788;48.194;16.318;2023-12-20T08:18:56;7.10;99.90
19307;DHT22;9788;48.194;16.318;2023-12-20T08:21:25;7.10;99.90
19307;DHT22;9788;48.194;16.318;2023-12-20T08:23:53;7.10;99.90
19307;DHT22;9788;48.194;16.318;2023-12-20T08:26:22;7.20;99.90
19307;DHT22;9788;48.194;16.318;2023-12-20T08:28:52;7.10;99.90
19307;DHT22;9788;48.194;16.318;2023-12-20T08:31:22;7.20;99.90
19307;DHT22;9788;48.194;16.318;2023-12-20T08:33:51;7.20;99.90
19307;DHT22;9788;48.194;16.318;2023-12-20T08:36:22;7.20;99.90
19307;DHT22;9788;48.194;16.318;2023-12-20T08:38:51;7.20;99.90
19307;DHT22;9788;48.194;16.318;2023-12-20T08:41:21;7.20;99.90
19307;DHT22;9788;48.194;16.318;2023-12-20T08:43:51;7.30;99.90
19307;DHT22;9788;48.194;16.318;2023-12-20T08:46:20;7.30;99.90
19307;DHT22;9788;48.194;16.318;2023-12-20T08:48:48;7.30;99.90
19307;DHT22;9788;48.194;16.318;2023-12-20T08:51:17;7.30;99.90
19307;DHT22;9788;48.194;16.318;2023-12-20T08:53:45;7.30;99.90
19307;DHT22;9788;48.194;16.318;2023-12-20T08:56:20;7.30;99.90
19307;DHT22;9788;48.194;16.318;2023-12-20T08:58:51;7.30;99.90
19307;DHT22;9788;48.194;16.318;2023-12-20T09:01:20;7.30;99.90
19307;DHT22;9788;48.194;16.318;2023-12-20T09:03:48;7.20;99.90
19307;DHT22;9788;48.194;16.318;2023-12-20T09:06:16;7.20;99.90
19307;DHT22;9788;48.194;16.318;2023-12-20T09:08:45;7.20;99.90
19307;DHT22;9788;48.194;16.318;2023-12-20T09:11:15;7.20;99.90
19307;DHT22;9788;48.194;16.318;2023-12-20T09:13:44;7.20;99.90
19307;DHT22;9788;48.194;16.318;2023-12-20T09:16:14;7.20;99.90
19307;DHT22;9788;48.194;16.318;2023-12-20T09:18:43;7.20;99.90
19307;DHT22;9788;48.194;16.318;2023-12-20T09:21:11;7.20;99.90
19307;DHT22;9788;48.194;16.318;2023-12-20T09:23:39;7.20;99.90
19307;DHT22;9788;48.194;16.318;2023-12-20T09:26:08;7.20;99.90
19307;DHT22;9788;48.194;16.318;2023-12-20T09:28:36;7.10;99.90
19307;DHT22;9788;48.194;16.318;2023-12-20T09:31:05;7.10;99.90
19307;DHT22;9788;48.194;16.318;2023-12-20T09:33:35;7.10;99.90
19307;DHT22;9788;48.194;16.318;2023-12-20T09:36:05;7.00;99.90
19307;DHT22;9788;48.194;16.318;2023-12-20T09:38:33;7.00;99.90
19307;DHT22;9788;48.194;16.318;2023-12-20T09:41:02;7.00;99.90
19307;DHT22;9788;48.194;16.318;2023-12-20T09:43:32;6.90;99.90
19307;DHT22;9788;48.194;16.318;2023-12-20T09:46:06;6.90;99.90
19307;DHT22;9788;48.194;16.318;2023-12-20T09:48:36;6.70;99.90
19307;DHT22;9788;48.194;16.318;2023-12-20T09:51:05;6.70;99.90
19307;DHT22;9788;48.194;16.318;2023-12-20T09:53:36;6.60;99.90
19307;DHT22;9788;48.194;16.318;2023-12-20T09:56:06;6.50;99.90
19307;DHT22;9788;48.194;16.318;2023-12-20T09:58:37;6.30;99.90
19307;DHT22;9788;48.194;16.318;2023-12-20T10:01:07;6.20;99.90
19307;DHT22;9788;48.194;16.318;2023-12-20T10:03:39;6.20;99.90
19307;DHT22;9788;48.194;16.318;2023-12-20T10:06:09;6.10;99.90
19307;DHT22;9788;48.194;16.318;2023-12-20T10:08:38;5.90;99.90
19307;DHT22;9788;48.194;16.318;2023-12-20T10:11:08;5.90;99.90
19307;DHT22;9788;48.194;16.318;2023-12-20T10:13:39;5.90;99.90
19307;DHT22;9788;48.194;16.318;2023-12-20T10:16:08;5.80;99.90
19307;DHT22;9788;48.194;16.318;2023-12-20T10:18:37;5.80;99.90
19307;DHT22;9788;48.194;16.318;2023-12-20T10:21:06;5.80;99.90
19307;DHT22;9788;48.194;16.318;2023-12-20T10:23:37;5.80;99.90
19307;DHT22;9788;48.194;16.318;2023-12-20T10:26:07;5.90;99.90
19307;DHT22;9788;48.194;16.318;2023-12-20T10:28:36;5.90;99.90
19307;DHT22;9788;48.194;16.318;2023-12-20T10:31:05;6.00;99.90
19307;DHT22;9788;48.194;16.318;2023-12-20T10:33:33;6.00;99.90
19307;DHT22;9788;48.194;16.318;2023-12-20T10:36:04;6.10;99.90
19307;DHT22;9788;48.194;16.318;2023-12-20T10:38:33;6.20;99.90
19307;DHT22;9788;48.194;16.318;2023-12-20T10:41:04;6.20;99.90
19307;DHT22;9788;48.194;16.318;2023-12-20T10:43:34;6.20;99.90
19307;DHT22;9788;48.194;16.318;2023-12-20T10:46:05;6.30;99.90
19307;DHT22;9788;48.194;16.318;2023-12-20T10:48:35;6.30;99.90
19307;DHT22;9788;48.194;16.318;2023-12-20T10:51:06;6.40;99.90
19307;DHT22;9788;48.194;16.318;2023-12-20T10:53:35;6.40;99.90
19307;DHT22;9788;48.194;16.318;2023-12-20T10:56:05;6.40;99.90
19307;DHT22;9788;48.194;16.318;2023-12-20T10:58:34;6.40;99.90
19307;DHT22;9788;48.194;16.318;2023-12-20T11:01:05;6.50;99.90
19307;DHT22;9788;48.194;16.318;2023-12-20T11:03:35;6.50;99.90
19307;DHT22;9788;48.194;16.318;2023-12-20T11:06:10;6.50;99.90
19307;DHT22;9788;48.194;16.318;2023-12-20T11:08:46;6.50;99.90
19307;DHT22;9788;48.194;16.318;2023-12-20T11:11:23;6.50;99.90
19307;DHT22;9788;48.194;16.318;2023-12-20T11:13:57;6.60;99.90
19307;DHT22;9788;48.194;16.318;2023-12-20T11:16:26;6.70;99.90
19307;DHT22;9788;48.194;16.318;2023-12-20T11:19:07;6.70;99.90
19307;DHT22;9788;48.194;16.318;2023-12-20T11:21:41;6.70;99.90
19307;DHT22;9788;48.194;16.318;2023-12-20T11:24:10;6.70;99.90
19307;DHT22;9788;48.194;16.318;2023-12-20T11:26:46;6.70;99.90
19307;DHT22;9788;48.194;16.318;2023-12-20T11:29:31;6.70;99.90
19307;DHT22;9788;48.194;16.318;2023-12-20T11:32:01;6.70;99.90
19307;DHT22;9788;48.194;16.318;2023-12-20T11:34:32;6.80;99.90
19307;DHT22;9788;48.194;16.318;2023-12-20T11:37:05;6.80;99.90
19307;DHT22;9788;48.194;16.318;2023-12-20T11:39:35;6.80;99.90
19307;DHT22;9788;48.194;16.318;2023-12-20T11:42:05;6.90;99.90
19307;DHT22;9788;48.194;16.318;2023-12-20T11:44:35;6.90;99.90
19307;DHT22;9788;48.194;16.318;2023-12-20T11:47:04;7.00;99.90
19307;DHT22;9788;48.194;16.318;2023-12-20T11:49:33;7.00;99.90
19307;DHT22;9788;48.194;16.318;2023-12-20T11:52:05;7.00;99.90
19307;DHT22;9788;48.194;16.318;2023-12-20T11:54:33;7.00;99.90
19307;DHT22;9788;48.194;16.318;2023-12-20T11:57:04;7.10;99.90
19307;DHT22;9788;48.194;16.318;2023-12-20T11:59:33;7.20;99.90
19307;DHT22;9788;48.194;16.318;2023-12-20T12:02:01;7.20;99.90
19307;DHT22;9788;48.194;16.318;2023-12-20T12:04:30;7.30;99.90
19307;DHT22;9788;48.194;16.318;2023-12-20T12:06:58;7.40;99.90
19307;DHT22;9788;48.194;16.318;2023-12-20T12:09:28;7.50;99.90
19307;DHT22;9788;48.194;16.318;2023-12-20T12:11:57;7.50;99.90
19307;DHT22;9788;48.194;16.318;2023-12-20T12:14:27;7.60;99.90
19307;DHT22;9788;48.194;16.318;2023-12-20T12:16:55;7.80;99.90
19307;DHT22;9788;48.194;16.318;2023-12-20T12:19:24;7.80;99.90
19307;DHT22;9788;48.194;16.318;2023-12-20T12:22:04;7.90;99.90
19307;DHT22;9788;48.194;16.318;2023-12-20T12:24:36;7.80;99.90
19307;DHT22;9788;48.194;16.318;2023-12-20T12:27:08;8.00;99.90
19307;DHT22;9788;48.194;16.318;2023-12-20T12:29:36;8.00;99.90
19307;DHT22;9788;48.194;16.318;2023-12-20T12:32:06;8.10;99.90
19307;DHT22;9788;48.194;16.318;2023-12-20T12:34:36;8.20;99.90
19307;DHT22;9788;48.194;16.318;2023-12-20T12:37:04;8.20;99.90
19307;DHT22;9788;48.194;16.318;2023-12-20T12:39:35;8.00;99.90
19307;DHT22;9788;48.194;16.318;2023-12-20T12:42:04;8.00;99.90
19307;DHT22;9788;48.194;16.318;2023-12-20T12:44:32;7.90;99.90
19307;DHT22;9788;48.194;16.318;2023-12-20T12:47:04;7.80;99.90
19307;DHT22;9788;48.194;16.318;2023-12-20T12:49:32;7.70;99.90
19307;DHT22;9788;48.194;16.318;2023-12-20T12:52:01;7.60;99.90
19307;DHT22;9788;48.194;16.318;2023-12-20T12:54:34;7.40;99.90
19307;DHT22;9788;48.194;16.318;2023-12-20T12:57:06;7.40;99.90
19307;DHT22;9788;48.194;16.318;2023-12-20T12:59:39;7.40;99.90
19307;DHT22;9788;48.194;16.318;2023-12-20T13:02:08;7.40;99.90
19307;DHT22;9788;48.194;16.318;2023-12-20T13:04:36;7.40;99.90
19307;DHT22;9788;48.194;16.318;2023-12-20T13:07:05;7.40;99.90
19307;DHT22;9788;48.194;16.318;2023-12-20T13:09:33;7.40;99.90
19307;DHT22;9788;48.194;16.318;2023-12-20T13:12:01;7.40;99.90
19307;DHT22;9788;48.194;16.318;2023-12-20T13:14:33;7.40;99.90
19307;DHT22;9788;48.194;16.318;2023-12-20T13:17:03;7.40;99.90
19307;DHT22;9788;48.194;16.318;2023-12-20T13:19:32;7.30;99.90
19307;DHT22;9788;48.194;16.318;2023-12-20T13:22:01;7.30;99.90
19307;DHT22;9788;48.194;16.318;2023-12-20T13:24:30;7.30;99.90
19307;DHT22;9788;48.194;16.318;2023-12-20T13:26:59;7.30;99.90
19307;DHT22;9788;48.194;16.318;2023-12-20T13:29:27;7.30;99.90
19307;DHT22;9788;48.194;16.318;2023-12-20T13:31:57;7.30;99.90
19307;DHT22;9788;48.194;16.318;2023-12-20T13:34:25;7.30;99.90
19307;DHT22;9788;48.194;16.318;2023-12-20T13:36:54;7.30;99.90
19307;DHT22;9788;48.194;16.318;2023-12-20T13:39:23;7.30;99.90
19307;DHT22;9788;48.194;16.318;2023-12-20T13:41:52;7.30;99.90
19307;DHT22;9788;48.194;16.318;2023-12-20T13:44:25;7.20;99.90
19307;DHT22;9788;48.194;16.318;2023-12-20T13:46:53;7.20;99.90
19307;DHT22;9788;48.194;16.318;2023-12-20T13:49:22;7.10;99.90
19307;DHT22;9788;48.194;16.318;2023-12-20T13:51:53;7.10;99.90
19307;DHT22;9788;48.194;16.318;2023-12-20T13:54:24;7.10;99.90
19307;DHT22;9788;48.194;16.318;2023-12-20T13:56:54;7.00;99.90
19307;DHT22;9788;48.194;16.318;2023-12-20T13:59:38;7.00;99.90
19307;DHT22;9788;48.194;16.318;2023-12-20T14:02:07;7.00;99.90
19307;DHT22;9788;48.194;16.318;2023-12-20T14:04:37;6.90;99.90
19307;DHT22;9788;48.194;16.318;2023-12-20T14:07:10;6.80;99.90
19307;DHT22;9788;48.194;16.318;2023-12-20T14:09:41;6.80;99.90
19307;DHT22;9788;48.194;16.318;2023-12-20T14:12:19;6.70;99.90
19307;DHT22;9788;48.194;16.318;2023-12-20T14:14:47;6.70;99.90
19307;DHT22;9788;48.194;16.318;2023-12-20T14:17:19;6.80;99.90
19307;DHT22;9788;48.194;16.318;2023-12-20T14:19:49;6.70;99.90
19307;DHT22;9788;48.194;16.318;2023-12-20T14:22:18;6.60;99.90
19307;DHT22;9788;48.194;16.318;2023-12-20T14:24:47;6.50;99.90
19307;DHT22;9788;48.194;16.318;2023-12-20T14:27:15;6.40;99.90
19307;DHT22;9788;48.194;16.318;2023-12-20T14:29:46;6.40;99.90
19307;DHT22;9788;48.194;16.318;2023-12-20T14:32:17;6.30;99.90
19307;DHT22;9788;48.194;16.318;2023-12-20T14:34:51;6.30;99.90
19307;DHT22;9788;48.194;16.318;2023-12-20T14:37:30;6.30;99.90
19307;DHT22;9788;48.194;16.318;2023-12-20T14:40:02;6.20;99.90
19307;DHT22;9788;48.194;16.318;2023-12-20T14:42:44;6.30;99.90
19307;DHT22;9788;48.194;16.318;2023-12-20T14:45:17;6.50;99.90
19307;DHT22;9788;48.194;16.318;2023-12-20T14:47:48;6.50;99.90
19307;DHT22;9788;48.194;16.318;2023-12-20T14:50:19;6.50;99.90
19307;DHT22;9788;48.194;16.318;2023-12-20T14:52:50;6.40;99.90
19307;DHT22;9788;48.194;16.318;2023-12-20T14:55:22;6.40;99.90
19307;DHT22;9788;48.194;16.318;2023-12-20T14:57:50;6.30;99.90
19307;DHT22;9788;48.194;16.318;2023-12-20T15:00:22;6.20;99.90
19307;DHT22;9788;48.194;16.318;2023-12-20T15:02:52;6.20;99.90
19307;DHT22;9788;48.194;16.318;2023-12-20T15:05:32;6.20;99.90
19307;DHT22;9788;48.194;16.318;2023-12-20T15:08:01;6.20;99.90
19307;DHT22;9788;48.194;16.318;2023-12-20T15:10:30;6.20;99.90
19307;DHT22;9788;48.194;16.318;2023-12-20T15:12:59;6.20;99.90
19307;DHT22;9788;48.194;16.318;2023-12-20T15:15:27;6.20;99.90
19307;DHT22;9788;48.194;16.318;2023-12-20T15:17:58;6.20;99.90
19307;DHT22;9788;48.194;16.318;2023-12-20T15:20:26;6.10;99.90
19307;DHT22;9788;48.194;16.318;2023-12-20T15:22:58;6.20;99.90
19307;DHT22;9788;48.194;16.318;2023-12-20T15:25:31;6.10;99.90
19307;DHT22;9788;48.194;16.318;2023-12-20T15:28:00;6.20;99.90
19307;DHT22;9788;48.194;16.318;2023-12-20T15:30:29;6.30;99.90
19307;DHT22;9788;48.194;16.318;2023-12-20T15:32:59;6.30;99.90
19307;DHT22;9788;48.194;16.318;2023-12-20T15:35:32;6.40;99.90
19307;DHT22;9788;48.194;16.318;2023-12-20T15:38:02;6.40;99.90
19307;DHT22;9788;48.194;16.318;2023-12-20T15:40:32;6.50;99.90
19307;DHT22;9788;48.194;16.318;2023-12-20T15:43:12;6.50;99.90
19307;DHT22;9788;48.194;16.318;2023-12-20T15:45:41;6.60;99.90
19307;DHT22;9788;48.194;16.318;2023-12-20T15:48:09;6.60;99.90
19307;DHT22;9788;48.194;16.318;2023-12-20T15:50:42;6.60;99.90
19307;DHT22;9788;48.194;16.318;2023-12-20T15:53:12;6.60;99.90
19307;DHT22;9788;48.194;16.318;2023-12-20T15:55:40;6.60;99.90
19307;DHT22;9788;48.194;16.318;2023-12-20T15:58:09;6.50;99.90